createdAt,value
2018-05-15T00:00:59.951Z,101147.95
2018-05-15T00:03:25.834Z,101142.78
2018-05-15T00:05:52.785Z,101144.63
2018-05-15T00:08:18.740Z,101147.39
2018-05-15T00:10:44.795Z,101147.72
2018-05-15T00:13:10.784Z,101146.97
2018-05-15T00:15:36.655Z,101148.33
2018-05-15T00:18:02.535Z,101145.70
2018-05-15T00:20:28.641Z,101144.06
2018-05-15T00:22:54.529Z,101143.62
2018-05-15T00:25:20.568Z,101140.11
2018-05-15T00:27:46.571Z,101135.34
2018-05-15T00:30:12.460Z,101128.77
2018-05-15T00:32:38.533Z,101137.20
2018-05-15T00:35:04.859Z,101128.01
2018-05-15T00:37:30.731Z,101119.70
2018-05-15T00:39:56.615Z,101125.33
2018-05-15T00:42:22.675Z,101117.47
2018-05-15T00:44:48.716Z,101121.87
2018-05-15T00:47:14.657Z,101118.83
2018-05-15T00:49:40.575Z,101113.12
2018-05-15T00:52:06.503Z,101117.50
2018-05-15T00:54:32.383Z,101119.80
2018-05-15T00:56:58.515Z,101117.58
2018-05-15T00:59:24.471Z,101119.33
2018-05-15T01:01:50.352Z,101126.00
2018-05-15T01:04:16.283Z,101124.73
2018-05-15T01:06:42.163Z,101129.98
2018-05-15T01:09:08.199Z,101119.02
2018-05-15T01:11:34.140Z,101119.00
2018-05-15T01:14:00.190Z,101118.04
2018-05-15T01:16:26.116Z,101111.53
2018-05-15T01:18:52.039Z,101107.98
2018-05-15T01:21:18.112Z,101112.39
2018-05-15T01:23:44.001Z,101110.56
2018-05-15T01:26:09.928Z,101103.80
2018-05-15T01:28:35.832Z,101100.75
2018-05-15T01:31:01.722Z,101092.42
2018-05-15T01:33:27.826Z,101095.55
2018-05-15T01:35:53.716Z,101091.59
2018-05-15T01:38:19.662Z,101096.07
2018-05-15T01:40:45.583Z,101104.45
2018-05-15T01:43:11.467Z,101096.16
2018-05-15T01:45:37.503Z,101098.00
2018-05-15T01:48:03.508Z,101094.49
2018-05-15T01:50:29.479Z,101097.20
2018-05-15T01:52:55.373Z,101099.41
2018-05-15T01:55:21.307Z,101096.79
2018-05-15T01:57:47.364Z,101102.14
2018-05-15T02:00:13.272Z,101103.50
2018-05-15T02:02:39.223Z,101100.92
2018-05-15T02:05:05.110Z,101105.33
2018-05-15T02:07:30.988Z,101104.09
2018-05-15T02:09:57.064Z,101098.41
2018-05-15T02:12:22.956Z,101107.61
2018-05-15T02:14:48.883Z,101101.54
2018-05-15T02:17:18.575Z,101102.89
2018-05-15T02:19:44.472Z,101106.51
2018-05-15T02:22:11.084Z,101107.84
2018-05-15T02:24:37.023Z,101102.99
2018-05-15T02:27:03.000Z,101102.13
2018-05-15T02:29:28.897Z,101103.88
2018-05-15T02:31:54.839Z,101098.48
2018-05-15T02:34:20.873Z,101094.95
2018-05-15T02:36:46.759Z,101090.53
2018-05-15T02:39:12.684Z,101090.09
2018-05-15T02:41:38.635Z,101088.35
2018-05-15T02:44:04.526Z,101086.20
2018-05-15T02:46:30.604Z,101090.23
2018-05-15T02:48:56.496Z,101096.45
2018-05-15T02:51:22.458Z,101096.57
2018-05-15T02:53:48.423Z,101092.25
2018-05-15T02:56:15.393Z,101096.36
2018-05-15T02:58:41.432Z,101091.17
2018-05-15T03:01:07.470Z,101089.97
2018-05-15T03:03:33.329Z,101091.84
2018-05-15T03:05:59.196Z,101086.62
2018-05-15T03:08:25.112Z,101096.28
2018-05-15T03:10:52.154Z,101091.05
2018-05-15T03:13:18.034Z,101099.84
2018-05-15T03:15:45.357Z,101092.65
2018-05-15T03:18:11.309Z,101089.98
2018-05-15T03:20:37.257Z,101097.85
2018-05-15T03:23:03.184Z,101093.48
2018-05-15T03:25:29.282Z,101088.23
2018-05-15T03:27:55.273Z,101087.84
2018-05-15T03:30:21.188Z,101091.84
2018-05-15T03:32:47.064Z,101091.36
2018-05-15T03:35:12.956Z,101094.05
2018-05-15T03:37:38.930Z,101094.54
2018-05-15T03:40:04.840Z,101091.94
2018-05-15T03:42:30.726Z,101089.34
2018-05-15T03:44:56.659Z,101097.70
2018-05-15T03:47:22.600Z,101094.14
2018-05-15T03:49:48.501Z,101098.11
2018-05-15T03:52:14.424Z,101102.45
2018-05-15T03:54:40.381Z,101098.11
2018-05-15T03:57:06.272Z,101101.51
2018-05-15T03:59:32.187Z,101093.09
2018-05-15T04:02:10.251Z,101092.23
2018-05-15T04:04:48.355Z,101100.94
2018-05-15T04:07:26.624Z,101092.91
2018-05-15T04:09:52.561Z,101097.67
2018-05-15T04:12:18.504Z,101093.14
2018-05-15T04:14:44.452Z,101099.23
2018-05-15T04:17:10.383Z,101102.66
2018-05-15T04:19:36.263Z,101100.34
2018-05-15T04:22:02.153Z,101092.61
2018-05-15T04:24:28.072Z,101096.25
2018-05-15T04:26:53.933Z,101092.48
2018-05-15T04:29:19.870Z,101092.61
2018-05-15T04:31:46.547Z,101083.91
2018-05-15T04:34:12.478Z,101077.84
2018-05-15T04:36:38.359Z,101077.91
2018-05-15T04:39:04.309Z,101080.68
2018-05-15T04:41:30.259Z,101071.34
2018-05-15T04:43:56.191Z,101077.39
2018-05-15T04:46:22.219Z,101074.94
2018-05-15T04:48:48.088Z,101073.77
2018-05-15T04:51:14.032Z,101069.55
2018-05-15T04:53:39.955Z,101070.95
2018-05-15T04:56:05.835Z,101073.15
2018-05-15T04:58:31.724Z,101077.19
2018-05-15T05:00:58.669Z,101082.56
2018-05-15T05:03:24.539Z,101083.22
2018-05-15T05:05:50.415Z,101082.45
2018-05-15T05:08:16.360Z,101087.41
2018-05-15T05:10:44.303Z,101085.77
2018-05-15T05:13:10.221Z,101084.11
2018-05-15T05:15:36.155Z,101077.97
2018-05-15T05:18:02.147Z,101076.30
2018-05-15T05:20:27.960Z,101086.20
2018-05-15T05:22:53.878Z,101085.84
2018-05-15T05:25:19.790Z,101082.86
2018-05-15T05:27:45.691Z,101086.77
2018-05-15T05:30:11.644Z,101079.61
2018-05-15T05:32:38.065Z,101084.05
2018-05-15T05:35:03.947Z,101090.63
2018-05-15T05:37:29.875Z,101089.05
2018-05-15T05:39:55.748Z,101085.30
2018-05-15T05:42:21.639Z,101090.87
2018-05-15T05:44:47.552Z,101089.98
2018-05-15T05:47:14.526Z,101089.98
2018-05-15T05:49:40.415Z,101086.75
2018-05-15T05:52:06.363Z,101092.61
2018-05-15T05:54:32.259Z,101088.44
2018-05-15T05:56:58.118Z,101086.50
2018-05-15T05:59:24.056Z,101089.83
2018-05-15T06:01:49.947Z,101089.73
2018-05-15T06:04:15.843Z,101094.58
2018-05-15T06:06:41.782Z,101089.81
2018-05-15T06:09:07.675Z,101090.39
2018-05-15T06:11:33.548Z,101090.53
2018-05-15T06:13:59.531Z,101088.88
2018-05-15T06:16:25.396Z,101083.63
2018-05-15T06:18:51.278Z,101083.24
2018-05-15T06:21:17.195Z,101081.52
2018-05-15T06:23:43.078Z,101078.67
2018-05-15T06:26:08.954Z,101085.06
2018-05-15T06:28:34.872Z,101087.61
2018-05-15T06:31:00.783Z,101078.37
2018-05-15T06:33:26.663Z,101086.62
2018-05-15T06:35:52.583Z,101080.46
2018-05-15T06:38:18.484Z,101078.94
2018-05-15T06:40:44.358Z,101075.27
2018-05-15T06:43:10.312Z,101075.67
2018-05-15T06:45:36.198Z,101072.29
2018-05-15T06:48:02.101Z,101071.33
2018-05-15T06:50:28.033Z,101065.82
2018-05-15T06:52:53.933Z,101061.76
2018-05-15T06:55:19.849Z,101060.11
2018-05-15T06:57:45.801Z,101058.97
2018-05-15T07:00:11.688Z,101059.84
2018-05-15T07:02:37.755Z,101059.23
2018-05-15T07:05:03.690Z,101061.16
2018-05-15T07:07:29.582Z,101051.83
2018-05-15T07:09:55.452Z,101050.98
2018-05-15T07:12:22.287Z,101046.94
2018-05-15T07:14:48.237Z,101043.48
2018-05-15T07:17:14.168Z,101045.45
2018-05-15T07:19:40.105Z,101047.05
2018-05-15T07:22:05.968Z,101039.30
2018-05-15T07:24:31.860Z,101035.41
2018-05-15T07:26:57.788Z,101031.15
2018-05-15T07:29:23.789Z,101031.09
2018-05-15T07:31:49.681Z,101029.63
2018-05-15T07:34:15.795Z,101025.88
2018-05-15T07:36:41.683Z,101026.58
2018-05-15T07:39:07.543Z,101025.88
2018-05-15T07:41:33.477Z,101029.89
2018-05-15T07:43:59.359Z,101030.16
2018-05-15T07:46:25.264Z,101023.27
2018-05-15T07:48:51.185Z,101019.22
2018-05-15T07:51:17.055Z,101020.03
2018-05-15T07:53:42.951Z,101019.03
2018-05-15T07:56:08.881Z,101021.08
2018-05-15T07:58:34.883Z,101018.09
2018-05-15T08:01:00.762Z,101014.23
2018-05-15T08:03:26.709Z,101011.70
2018-05-15T08:05:52.579Z,101011.94
2018-05-15T08:08:18.464Z,101016.09
2018-05-15T08:10:44.464Z,101013.02
2018-05-15T08:13:10.355Z,101015.27
2018-05-15T08:15:36.312Z,101002.34
2018-05-15T08:18:05.387Z,101001.06
2018-05-15T08:20:31.262Z,100996.56
2018-05-15T08:22:57.224Z,100998.98
2018-05-15T08:25:23.139Z,101003.19
2018-05-15T08:27:49.142Z,101002.02
2018-05-15T08:30:15.017Z,100998.55
2018-05-15T08:32:40.954Z,100999.66
2018-05-15T08:35:06.918Z,100997.13
2018-05-15T08:37:32.873Z,100997.54
2018-05-15T08:39:58.740Z,100998.41
2018-05-15T08:42:24.669Z,100993.61
2018-05-15T08:44:50.536Z,100994.84
2018-05-15T08:47:16.544Z,100999.14
2018-05-15T08:49:42.405Z,101000.95
2018-05-15T08:52:08.329Z,101001.38
2018-05-15T08:54:34.252Z,101002.11
2018-05-15T08:57:00.159Z,100997.78
2018-05-15T08:59:26.967Z,100996.44
2018-05-15T09:01:53.256Z,100991.00
2018-05-15T09:04:19.117Z,101001.80
2018-05-15T09:06:44.998Z,100992.61
2018-05-15T09:09:10.968Z,100989.98
2018-05-15T09:11:36.931Z,100990.42
2018-05-15T09:14:02.889Z,100982.57
2018-05-15T09:16:28.815Z,100988.86
2018-05-15T09:18:54.692Z,100984.21
2018-05-15T09:21:20.596Z,100996.54
2018-05-15T09:23:46.599Z,100988.84
2018-05-15T09:26:12.516Z,100992.47
2018-05-15T09:28:38.387Z,100989.83
2018-05-15T09:31:04.315Z,100983.09
2018-05-15T09:33:30.256Z,100986.50
2018-05-15T09:35:56.220Z,100985.75
2018-05-15T09:38:22.163Z,100982.31
2018-05-15T09:40:48.064Z,100987.47
2018-05-15T09:43:21.992Z,100988.96
2018-05-15T09:45:47.924Z,100982.22
2018-05-15T09:48:13.919Z,100986.07
2018-05-15T09:50:39.839Z,100980.74
2018-05-15T09:53:05.778Z,100987.53
2018-05-15T09:55:31.643Z,100983.85
2018-05-15T09:57:57.574Z,100987.80
2018-05-15T10:00:29.673Z,100987.29
2018-05-15T10:02:55.547Z,100992.77
2018-05-15T10:05:21.566Z,100988.61
2018-05-15T10:07:47.502Z,100982.77
2018-05-15T10:10:13.402Z,100985.34
2018-05-15T10:12:39.439Z,100981.97
2018-05-15T10:15:05.316Z,100981.80
2018-05-15T10:17:31.204Z,100976.13
2018-05-15T10:19:57.138Z,100974.88
2018-05-15T10:22:23.020Z,100974.92
2018-05-15T10:24:48.992Z,100980.84
2018-05-15T10:27:14.957Z,100969.34
2018-05-15T10:29:40.839Z,100965.81
2018-05-15T10:32:06.725Z,100963.63
2018-05-15T10:34:32.952Z,100965.79
2018-05-15T10:36:58.923Z,100963.82
2018-05-15T10:39:24.792Z,100967.98
2018-05-15T10:41:50.764Z,100954.30
2018-05-15T10:44:16.666Z,100963.40
2018-05-15T10:47:08.839Z,100961.43
2018-05-15T10:49:34.788Z,100960.34
2018-05-15T10:52:00.672Z,100955.36
2018-05-15T10:54:26.595Z,100952.38
2018-05-15T10:56:52.472Z,100945.48
2018-05-15T10:59:18.365Z,100950.20
2018-05-15T11:01:44.374Z,100944.02
2018-05-15T11:04:12.303Z,100950.70
2018-05-15T11:06:38.880Z,100942.87
2018-05-15T11:09:04.804Z,100933.16
2018-05-15T11:11:30.668Z,100930.70
2018-05-15T11:13:56.636Z,100928.55
2018-05-15T11:16:22.615Z,100932.77
2018-05-15T11:18:48.515Z,100929.16
2018-05-15T11:21:26.757Z,100930.73
2018-05-15T11:27:00.759Z,100925.71
2018-05-15T11:29:26.641Z,100923.72
2018-05-15T11:31:56.417Z,100914.36
2018-05-15T11:34:22.456Z,100920.48
2018-05-15T11:36:48.465Z,100916.25
2018-05-15T11:39:14.276Z,100914.14
2018-05-15T11:41:40.299Z,100905.77
2018-05-15T11:44:06.102Z,100910.16
2018-05-15T11:46:32.087Z,100911.35
2018-05-15T11:48:58.635Z,100897.53
2018-05-15T11:51:24.598Z,100893.55
2018-05-15T11:53:49.870Z,100887.70
2018-05-15T11:56:15.819Z,100889.81
2018-05-15T11:58:41.799Z,100895.13
2018-05-15T12:01:07.707Z,100891.38
2018-05-15T12:03:33.675Z,100889.19
2018-05-15T12:06:00.672Z,100890.17
2018-05-15T12:08:26.568Z,100887.47
2018-05-15T12:10:52.596Z,100883.16
2018-05-15T12:13:18.462Z,100886.91
2018-05-15T12:15:44.398Z,100882.51
2018-05-15T12:18:10.344Z,100873.20
2018-05-15T12:20:36.217Z,100870.87
2018-05-15T12:23:02.199Z,100875.99
2018-05-15T12:25:28.172Z,100873.58
2018-05-15T12:27:54.105Z,100876.47
2018-05-15T12:30:19.976Z,100867.72
2018-05-15T12:32:45.899Z,100865.38
2018-05-15T12:35:11.928Z,100867.32
2018-05-15T12:37:37.809Z,100866.73
2018-05-15T12:40:03.791Z,100863.34
2018-05-15T12:42:29.683Z,100866.84
2018-05-15T12:44:55.580Z,100864.13
2018-05-15T12:47:21.580Z,100860.27
2018-05-15T12:49:47.615Z,100856.94
2018-05-15T12:52:13.561Z,100868.43
2018-05-15T12:54:39.517Z,100871.87
2018-05-15T12:57:05.429Z,100867.78
2018-05-15T12:59:36.166Z,100870.52
2018-05-15T13:02:02.095Z,100858.72
2018-05-15T13:04:28.049Z,100861.52
2018-05-15T13:06:53.927Z,100857.22
2018-05-15T13:09:19.860Z,100866.96
2018-05-15T13:11:45.824Z,100872.38
2018-05-15T13:14:11.745Z,100891.63
2018-05-15T13:16:37.807Z,100886.47
2018-05-15T13:19:03.688Z,100890.79
2018-05-15T13:21:29.571Z,100886.09
2018-05-15T13:23:55.593Z,100880.77
2018-05-15T13:26:21.525Z,100884.38
2018-05-15T13:28:47.435Z,100878.06
2018-05-15T13:31:13.365Z,100873.77
2018-05-15T13:33:39.297Z,100866.24
2018-05-15T13:36:05.260Z,100860.53
2018-05-15T13:38:31.219Z,100860.91
2018-05-15T13:40:57.236Z,100859.97
2018-05-15T13:43:23.047Z,100859.66
2018-05-15T13:45:48.964Z,100849.20
2018-05-15T13:48:14.916Z,100855.52
2018-05-15T13:50:40.800Z,100849.36
2018-05-15T13:53:06.833Z,100851.94
2018-05-15T13:55:32.720Z,100845.05
2018-05-15T13:57:58.607Z,100852.08
2018-05-15T14:00:25.643Z,100850.73
2018-05-15T14:02:51.580Z,100847.57
2018-05-15T14:05:17.519Z,100852.30
2018-05-15T14:07:43.448Z,100847.48
2018-05-15T14:10:09.365Z,100849.41
2018-05-15T14:12:35.365Z,100850.75
2018-05-15T14:15:01.286Z,100848.39
2018-05-15T14:17:27.242Z,100851.78
2018-05-15T14:19:53.124Z,100869.20
2018-05-15T14:22:19.063Z,100882.25
2018-05-15T14:24:45.036Z,100876.17
2018-05-15T14:27:10.938Z,100881.67
2018-05-15T14:29:36.918Z,100880.73
2018-05-15T14:32:06.729Z,100883.27
2018-05-15T14:34:32.610Z,100881.89
2018-05-15T14:36:58.832Z,100876.97
2018-05-15T14:39:24.731Z,100878.95
2018-05-15T14:42:02.958Z,100883.81
2018-05-15T14:44:28.828Z,100888.70
2018-05-15T14:46:54.723Z,100891.56
2018-05-15T14:49:20.764Z,100887.10
2018-05-15T14:51:47.714Z,100901.45
2018-05-15T14:54:13.652Z,100892.77
2018-05-15T14:56:39.660Z,100903.95
2018-05-15T14:59:05.582Z,100917.53
2018-05-15T15:01:31.522Z,100934.30
2018-05-15T15:03:57.472Z,100981.58
2018-05-15T15:06:23.395Z,100968.14
2018-05-15T15:08:49.280Z,100981.14
2018-05-15T15:11:15.207Z,100975.25
2018-05-15T15:13:41.115Z,100976.28
2018-05-15T15:16:07.000Z,100974.02
2018-05-15T15:18:32.923Z,100976.45
2018-05-15T15:20:58.835Z,100973.95
2018-05-15T15:23:30.299Z,100969.83
2018-05-15T15:25:56.219Z,100971.00
2018-05-15T15:28:22.176Z,100962.90
2018-05-15T15:30:48.048Z,100953.48
2018-05-15T15:33:13.976Z,100947.16
2018-05-15T15:35:39.888Z,100952.70
2018-05-15T15:38:05.775Z,100958.89
2018-05-15T15:40:31.887Z,100972.95
2018-05-15T15:42:57.772Z,100974.89
2018-05-15T15:45:23.747Z,100971.61
2018-05-15T15:47:49.698Z,100962.63
2018-05-15T15:50:15.614Z,100962.71
2018-05-15T15:52:41.503Z,100956.07
2018-05-15T15:55:07.465Z,100953.14
2018-05-15T15:57:35.482Z,100955.69
2018-05-15T16:00:01.426Z,100962.34
2018-05-15T16:02:27.363Z,100959.61
2018-05-15T16:04:53.247Z,100954.70
2018-05-15T16:07:19.133Z,100956.63
2018-05-15T16:09:46.530Z,100961.73
2018-05-15T16:12:12.450Z,100959.04
2018-05-15T16:14:38.383Z,100952.88
2018-05-15T16:17:04.312Z,100947.47
2018-05-15T16:19:30.203Z,100935.51
2018-05-15T16:21:56.100Z,100928.73
2018-05-15T16:24:22.020Z,100909.36
2018-05-15T16:26:52.211Z,100878.95
2018-05-15T16:29:18.084Z,100820.21
2018-05-15T16:31:44.009Z,100802.63
2018-05-15T16:34:09.900Z,100804.41
2018-05-15T16:36:35.795Z,100808.41
2018-05-15T16:39:01.724Z,100809.58
2018-05-15T16:41:27.608Z,100808.98
2018-05-15T16:43:53.548Z,100811.38
2018-05-15T16:46:24.771Z,100814.47
2018-05-15T16:48:50.630Z,100825.17
2018-05-15T16:51:16.516Z,100823.39
2018-05-15T16:53:42.440Z,100835.61
2018-05-15T16:56:08.329Z,100832.02
2018-05-15T16:58:35.361Z,100838.63
2018-05-15T17:01:01.288Z,100848.49
2018-05-15T17:03:29.192Z,100846.06
2018-05-15T17:05:55.111Z,100843.87
2018-05-15T17:08:23.165Z,100855.79
2018-05-15T17:10:49.155Z,100865.17
2018-05-15T17:13:15.079Z,100855.41
2018-05-15T17:15:41.188Z,100839.02
2018-05-15T17:18:07.082Z,100834.61
2018-05-15T17:20:33.019Z,100828.77
2018-05-15T17:22:58.947Z,100800.33
2018-05-15T17:25:24.918Z,100755.73
2018-05-15T17:27:51.820Z,100698.69
2018-05-15T17:30:17.758Z,100668.70
2018-05-15T17:32:43.657Z,100716.31
2018-05-15T17:35:09.529Z,100789.69
2018-05-15T17:37:35.569Z,100820.73
2018-05-15T17:40:01.456Z,100811.47
2018-05-15T17:42:35.000Z,100819.73
2018-05-15T17:45:00.921Z,100831.20
2018-05-15T17:47:26.953Z,100843.10
2018-05-15T17:49:52.832Z,100833.36
2018-05-15T17:52:18.723Z,100841.88
2018-05-15T17:54:44.611Z,100836.19
2018-05-15T17:57:10.556Z,100837.77
2018-05-15T17:59:36.542Z,100841.42
2018-05-15T18:02:02.445Z,100838.83
2018-05-15T18:04:28.416Z,100840.53
2018-05-15T18:06:54.307Z,100841.17
2018-05-15T18:09:20.189Z,100836.21
2018-05-15T18:11:46.193Z,100834.23
2018-05-15T18:14:12.053Z,100832.98
2018-05-15T18:16:37.923Z,100833.89
2018-05-15T18:19:03.835Z,100827.88
2018-05-15T18:21:29.713Z,100823.23
2018-05-15T18:23:55.704Z,100821.18
2018-05-15T18:26:21.628Z,100816.50
2018-05-15T18:28:47.565Z,100810.91
2018-05-15T18:31:14.153Z,100802.95
2018-05-15T18:33:40.244Z,100803.22
2018-05-15T18:36:06.235Z,100816.05
2018-05-15T18:38:32.147Z,100821.42
2018-05-15T18:40:58.328Z,100812.90
2018-05-15T18:43:24.291Z,100827.45
2018-05-15T18:45:50.169Z,100839.06
2018-05-15T18:48:16.188Z,100840.48
2018-05-15T18:50:42.089Z,100841.67
2018-05-15T18:53:08.258Z,100843.30
2018-05-15T18:55:34.208Z,100838.23
2018-05-15T18:58:00.153Z,100846.27
2018-05-15T19:00:26.083Z,100842.52
2018-05-15T19:02:51.993Z,100844.50
2018-05-15T19:05:18.260Z,100849.47
2018-05-15T19:07:44.970Z,100860.34
2018-05-15T19:10:10.907Z,100863.75
2018-05-15T19:12:36.899Z,100866.00
2018-05-15T19:15:02.805Z,100867.98
2018-05-15T19:17:29.286Z,100867.17
2018-05-15T19:19:55.223Z,100863.41
2018-05-15T19:22:21.154Z,100869.69
2018-05-15T19:24:47.554Z,100868.13
2018-05-15T19:27:13.477Z,100873.94
2018-05-15T19:29:39.317Z,100869.70
2018-05-15T19:32:11.397Z,100874.59
2018-05-15T19:34:37.307Z,100869.83
2018-05-15T19:37:10.165Z,100866.92
2018-05-15T19:39:42.245Z,100875.33
2018-05-15T19:42:08.095Z,100874.89
2018-05-15T19:44:33.991Z,100868.98
2018-05-15T19:46:59.916Z,100871.80
2018-05-15T19:49:25.863Z,100873.10
2018-05-15T19:51:51.744Z,100868.51
2018-05-15T19:54:17.758Z,100873.99
2018-05-15T19:56:43.583Z,100869.98
2018-05-15T19:59:09.457Z,100865.52
2018-05-15T20:01:35.472Z,100869.02
2018-05-15T20:04:01.351Z,100871.92
2018-05-15T20:06:27.202Z,100863.47
2018-05-15T20:08:53.129Z,100871.07
2018-05-15T20:11:19.017Z,100865.12
2018-05-15T20:13:44.972Z,100870.02
2018-05-15T20:16:10.923Z,100866.78
2018-05-15T20:18:36.802Z,100864.25
2018-05-15T20:21:02.684Z,100861.66
2018-05-15T20:23:28.602Z,100867.92
2018-05-15T20:25:54.560Z,100865.38
2018-05-15T20:28:20.419Z,100871.63
2018-05-15T20:30:46.343Z,100872.56
2018-05-15T20:33:12.204Z,100867.41
2018-05-15T20:35:38.075Z,100863.95
2018-05-15T20:38:04.102Z,100863.26
2018-05-15T20:40:29.984Z,100867.70
2018-05-15T20:42:55.851Z,100864.11
2018-05-15T20:45:21.801Z,100858.42
2018-05-15T20:47:47.657Z,100861.14
2018-05-15T20:50:13.628Z,100858.51
2018-05-15T20:52:39.533Z,100859.43
2018-05-15T20:55:05.407Z,100859.53
2018-05-15T20:57:31.288Z,100858.65
2018-05-15T20:59:57.195Z,100864.81
2018-05-15T21:02:23.148Z,100864.79
2018-05-15T21:04:49.014Z,100869.65
2018-05-15T21:07:14.936Z,100865.73
2018-05-15T21:09:40.806Z,100863.94
2018-05-15T21:12:06.666Z,100859.97
2018-05-15T21:14:32.683Z,100861.00
2018-05-15T21:16:58.562Z,100862.03
2018-05-15T21:19:24.437Z,100854.06
2018-05-15T21:21:50.850Z,100854.79
2018-05-15T21:24:16.760Z,100851.70
2018-05-15T21:26:42.739Z,100847.74
2018-05-15T21:29:08.654Z,100851.77
2018-05-15T21:31:34.533Z,100849.91
2018-05-15T21:34:00.391Z,100845.56
2018-05-15T21:36:26.303Z,100845.38
2018-05-15T21:38:52.276Z,100845.64
2018-05-15T21:41:18.147Z,100849.36
2018-05-15T21:43:44.465Z,100848.97
2018-05-15T21:46:10.333Z,100851.69
2018-05-15T21:48:36.208Z,100851.13
2018-05-15T21:51:02.252Z,100853.59
2018-05-15T21:53:28.128Z,100849.24
2018-05-15T21:55:54.044Z,100842.03
2018-05-15T21:58:19.955Z,100843.86
2018-05-15T22:00:45.852Z,100844.16
2018-05-15T22:03:11.807Z,100849.02
2018-05-15T22:05:37.793Z,100837.11
2018-05-15T22:08:03.682Z,100836.81
2018-05-15T22:10:29.569Z,100841.66
2018-05-15T22:13:07.943Z,100833.53
2018-05-15T22:15:47.270Z,100834.11
2018-05-15T22:18:25.423Z,100828.98
2018-05-15T22:21:03.711Z,100829.87
2018-05-15T22:23:29.485Z,100829.09
2018-05-15T22:25:55.522Z,100827.95
2018-05-15T22:28:21.411Z,100831.83
2018-05-15T22:30:47.328Z,100830.64
2018-05-15T22:33:13.215Z,100836.05
2018-05-15T22:35:39.104Z,100826.06
2018-05-15T22:38:05.192Z,100817.80
2018-05-15T22:40:31.077Z,100823.59
2018-05-15T22:42:56.960Z,100820.14
2018-05-15T22:45:22.892Z,100819.55
2018-05-15T22:47:48.811Z,100818.34
2018-05-15T22:50:14.828Z,100821.88
2018-05-15T22:52:40.753Z,100826.02
2018-05-15T22:55:06.615Z,100823.61
2018-05-15T22:57:32.468Z,100825.97
2018-05-15T22:59:58.384Z,100831.82
2018-05-15T23:02:24.391Z,100825.32
2018-05-15T23:04:50.268Z,100822.77
2018-05-15T23:07:16.209Z,100828.48
2018-05-15T23:09:42.074Z,100822.33
2018-05-15T23:12:07.955Z,100820.31
2018-05-15T23:14:34.024Z,100825.61
2018-05-15T23:16:59.899Z,100824.90
2018-05-15T23:19:25.779Z,100825.45
2018-05-15T23:21:51.708Z,100824.68
2018-05-15T23:24:17.571Z,100832.63
2018-05-15T23:26:43.584Z,100826.46
2018-05-15T23:29:09.509Z,100825.98
2018-05-15T23:31:35.419Z,100811.95
2018-05-15T23:34:01.296Z,100814.48
2018-05-15T23:36:27.204Z,100812.70
2018-05-15T23:38:53.222Z,100810.48
2018-05-15T23:41:19.092Z,100819.69
2018-05-15T23:43:46.072Z,100810.95
2018-05-15T23:46:11.974Z,100811.81
2018-05-15T23:48:37.839Z,100810.97
2018-05-15T23:51:03.896Z,100805.82
2018-05-15T23:53:29.894Z,100804.05
2018-05-15T23:55:55.764Z,100811.05
2018-05-15T23:58:21.701Z,100810.17
